createdAt,value
2023-04-21T00:04:22.741Z,24.2
2023-04-21T00:10:16.158Z,23.2
2023-04-21T00:16:06.786Z,25.3
2023-04-21T00:21:58.383Z,25.6
2023-04-21T00:27:50.273Z,25.3
2023-04-21T00:33:26.302Z,25.1
2023-04-21T00:39:17.838Z,24.8
2023-04-21T00:44:54.675Z,24.6
2023-04-21T00:50:31.173Z,24.3
2023-04-21T00:56:07.201Z,24.1
2023-04-21T01:01:44.914Z,23.3
2023-04-21T01:07:38.434Z,25.3
2023-04-21T01:13:14.326Z,25.5
2023-04-21T01:19:06.386Z,25.3
2023-04-21T01:24:57.755Z,25
2023-04-21T01:30:48.566Z,24.8
2023-04-21T01:36:41.134Z,24.5
2023-04-21T01:42:01.139Z,24.3
2023-04-21T01:47:22.349Z,24
2023-04-21T01:53:14.805Z,23.3
2023-04-21T01:58:35.255Z,25.3
2023-04-21T02:04:28.481Z,25.5
2023-04-21T02:10:20.090Z,25.3
2023-04-21T02:16:28.314Z,25
2023-04-21T02:22:20.559Z,24.7
2023-04-21T02:27:56.941Z,24.4
2023-04-21T02:33:54.855Z,24.3
2023-04-21T02:39:46.251Z,23.5
2023-04-21T02:45:38.114Z,23.8
2023-04-21T02:51:30.632Z,25.5
2023-04-21T02:57:21.910Z,25.5
2023-04-21T03:03:14.790Z,25.3
2023-04-21T03:09:06.824Z,25
2023-04-21T03:14:58.395Z,24.7
2023-04-21T03:20:51.262Z,24.4
2023-04-21T03:26:43.027Z,24.2
2023-04-21T03:32:19.996Z,23.5
2023-04-21T03:38:12.691Z,24.4
2023-04-21T03:44:15.833Z,25.6
2023-04-21T03:50:09.989Z,25.4
2023-04-21T03:56:01.788Z,25.2
2023-04-21T04:01:52.406Z,24.9
2023-04-21T04:07:47.902Z,24.6
2023-04-21T04:13:08.790Z,24.4
2023-04-21T04:19:00.791Z,24.1
2023-04-21T04:24:52.040Z,23.3
2023-04-21T04:30:28.825Z,25
2023-04-21T04:36:23.161Z,25.6
2023-04-21T04:42:14.036Z,25.4
2023-04-21T04:48:08.565Z,25.2
2023-04-21T04:54:02.396Z,24.9
2023-04-21T04:59:52.961Z,24.7
2023-04-21T05:05:32.103Z,24.4
2023-04-21T05:11:22.744Z,24.2
2023-04-21T05:17:15.115Z,23.4
2023-04-21T05:23:09.795Z,25.5
2023-04-21T05:29:04.197Z,25.6
2023-04-21T05:34:56.175Z,25.4
2023-04-21T05:40:51.389Z,25.1
2023-04-21T05:46:43.451Z,24.9
2023-04-21T05:51:34.614Z,24.6
2023-04-21T05:57:26.463Z,24.4
2023-04-21T06:03:19.382Z,23.5
2023-04-21T06:08:42.788Z,25
2023-04-21T06:14:34.600Z,25.7
2023-04-21T06:20:26.269Z,25.6
2023-04-21T06:26:02.074Z,25.4
2023-04-21T06:31:41.898Z,25.1
2023-04-21T06:37:18.502Z,24.9
2023-04-21T06:43:10.180Z,24.8
2023-04-21T06:48:47.224Z,23.8
2023-04-21T06:54:22.682Z,24.1
2023-04-21T07:00:17.011Z,25.6
2023-04-21T07:06:10.748Z,25.6
2023-04-21T07:12:02.663Z,25.4
2023-04-21T07:17:53.837Z,25.2
2023-04-21T07:23:46.269Z,24.9
2023-04-21T07:29:22.289Z,24.8
2023-04-21T07:35:13.077Z,24.6
2023-04-21T07:41:05.778Z,23.5
2023-04-21T07:46:56.543Z,25.6
2023-04-21T07:52:47.609Z,25.8
2023-04-21T07:58:39.481Z,25.7
2023-04-21T08:04:17.414Z,25.4
2023-04-21T08:10:16.046Z,25.3
2023-04-21T08:15:52.992Z,25.1
2023-04-21T08:21:31.343Z,24.3
2023-04-21T08:27:09.547Z,24.6
2023-04-21T08:33:02.703Z,25.9
2023-04-21T08:39:33.203Z,25.8
2023-04-21T08:45:27.392Z,25.6
2023-04-21T08:51:22.850Z,25.3
2023-04-21T08:57:44.460Z,25.1
2023-04-21T09:03:23.595Z,24.8
2023-04-21T09:08:50.300Z,24.2
2023-04-21T09:14:43.933Z,24.5
2023-04-21T09:20:20.653Z,25.9
2023-04-21T09:26:12.857Z,25.9
2023-04-21T09:32:08.532Z,25.7
2023-04-21T09:38:20.312Z,25.4
2023-04-21T09:51:37.213Z,24.9
2023-04-21T09:57:46.478Z,24.6
2023-04-21T10:03:40.206Z,26
2023-04-21T10:09:34.311Z,26
2023-04-21T10:15:27.783Z,25.8
2023-04-21T10:21:20.198Z,25.5
2023-04-21T10:27:12.184Z,25.3
2023-04-21T10:33:16.087Z,25.1
2023-04-21T10:39:08.171Z,24.1
2023-04-21T10:45:04.315Z,25.6
2023-04-21T10:50:56.236Z,26.1
2023-04-21T10:56:48.467Z,26
2023-04-21T11:02:41.815Z,25.8
2023-04-21T11:08:37.745Z,25.6
2023-04-21T11:14:29.883Z,25.4
2023-04-21T11:20:21.721Z,25.3
2023-04-21T11:26:12.525Z,25
2023-04-21T11:31:49.446Z,24.8
2023-04-21T11:37:41.140Z,24.6
2023-04-21T11:43:32.373Z,24.4
2023-04-21T11:49:25.643Z,24.2
2023-04-21T11:55:01.371Z,24
2023-04-21T12:00:53.563Z,23.8
2023-04-21T12:06:33.305Z,23.6
2023-04-21T12:12:24.572Z,23.5
2023-04-21T12:18:17.952Z,23.4
2023-04-21T12:24:10.188Z,23.3
2023-04-21T12:30:02.105Z,23.1
2023-04-21T12:35:57.298Z,23
2023-04-21T12:41:49.891Z,22.9
2023-04-21T12:47:43.586Z,22.8
2023-04-21T12:53:20.421Z,22.7
2023-04-21T12:59:22.377Z,22.6
2023-04-21T13:05:18.650Z,22.5
2023-04-21T13:10:55.330Z,22.4
2023-04-21T13:16:47.313Z,22.3
2023-04-21T13:22:40.754Z,22.3
2023-04-21T13:28:32.049Z,22.2
2023-04-21T13:34:26.759Z,22.1
2023-04-21T13:40:05.757Z,22.1
2023-04-21T13:45:59.317Z,22
2023-04-21T13:51:52.673Z,22
2023-04-21T13:57:46.137Z,21.9
2023-04-21T14:03:08.029Z,21.9
2023-04-21T14:09:05.664Z,21.8
2023-04-21T14:15:28.042Z,21.8
2023-04-21T14:21:20.012Z,21.8
2023-04-21T14:27:12.093Z,21.7
2023-04-21T14:32:49.652Z,21.7
2023-04-21T14:38:28.045Z,21.6
2023-04-21T14:44:06.423Z,21.6
2023-04-21T14:49:56.213Z,21.6
2023-04-21T14:55:47.245Z,21.6
2023-04-21T15:01:42.379Z,21.6
2023-04-21T15:07:24.125Z,21.6
2023-04-21T15:13:00.618Z,21.5
2023-04-21T15:18:37.681Z,21.5
2023-04-21T15:24:39.080Z,21.4
2023-04-21T15:30:14.730Z,21.4
2023-04-21T15:35:51.729Z,21.4
2023-04-21T15:41:38.739Z,21.4
2023-04-21T15:47:17.597Z,21.4
2023-04-21T15:53:10.346Z,21.4
2023-04-21T15:59:02.667Z,21.4
2023-04-21T16:04:58.517Z,21.3
2023-04-21T16:10:37.362Z,21.3
2023-04-21T16:17:02.980Z,21.3
2023-04-21T16:22:56.778Z,21.3
2023-04-21T16:28:50.215Z,21.3
2023-04-21T16:34:43.142Z,21.3
2023-04-21T16:40:36.910Z,21.3
2023-04-21T16:46:29.807Z,21.3
2023-04-21T16:52:22.979Z,21.3
2023-04-21T16:58:13.725Z,21.3
2023-04-21T17:04:06.996Z,21.3
2023-04-21T17:09:59.642Z,21.3
2023-04-21T17:15:50.462Z,21.2
2023-04-21T17:21:44.371Z,21.3
2023-04-21T17:27:53.285Z,21.2
2023-04-21T17:34:13.662Z,21.2
2023-04-21T17:40:19.764Z,21.2
2023-04-21T17:46:11.531Z,21.2
2023-04-21T17:57:39.746Z,21.2
2023-04-21T18:31:20.671Z,21.1
2023-04-21T18:36:56.271Z,21.1
2023-04-21T18:47:39.063Z,21.1
2023-04-21T18:53:15.405Z,21.1
2023-04-21T18:58:51.462Z,21.1
2023-04-21T19:04:29.758Z,21.1
2023-04-21T19:10:37.086Z,21.1
2023-04-21T19:16:41.823Z,21.1
2023-04-21T19:22:34.164Z,21
2023-04-21T19:28:25.458Z,21.9
2023-04-21T19:34:17.307Z,24.4
2023-04-21T19:40:09.676Z,25.2
2023-04-21T19:46:01.661Z,25.1
2023-04-21T19:51:53.062Z,24.9
2023-04-21T19:58:02.682Z,23.3
2023-04-21T20:04:12.158Z,24.6
2023-04-21T20:10:03.304Z,25.4
2023-04-21T20:15:55.401Z,25.3
2023-04-21T20:21:47.461Z,25.1
2023-04-21T20:27:24.983Z,24.9
2023-04-21T20:33:17.233Z,23.2
2023-04-21T20:38:53.513Z,25.2
2023-04-21T20:44:42.182Z,25.5
2023-04-21T20:50:35.157Z,25.4
2023-04-21T20:56:26.275Z,25.1
2023-04-21T21:02:19.992Z,24.9
2023-04-21T21:08:13.814Z,23.6
2023-04-21T21:14:08.185Z,24.8
2023-04-21T21:19:44.058Z,25.7
2023-04-21T21:25:35.704Z,25.5
2023-04-21T21:31:26.814Z,25.3
2023-04-21T21:37:18.767Z,25.1
2023-04-21T21:43:10.820Z,24.9
2023-04-21T21:49:07.112Z,23.5
2023-04-21T21:54:43.231Z,25.5
2023-04-21T22:00:36.445Z,25.7
2023-04-21T22:06:33.884Z,25.5
2023-04-21T22:12:25.710Z,25.3
2023-04-21T22:18:29.917Z,25.1
2023-04-21T22:24:20.869Z,24.8
2023-04-21T22:29:56.874Z,23.6
2023-04-21T22:35:49.041Z,25.6
2023-04-21T22:41:39.551Z,25.7
2023-04-21T22:47:31.066Z,25.5
2023-04-21T22:53:23.558Z,25.3
2023-04-21T22:59:15.562Z,25.1
2023-04-21T23:05:09.000Z,24.8
2023-04-21T23:10:46.118Z,23.6
2023-04-21T23:16:37.730Z,25.6
2023-04-21T23:22:29.799Z,25.8
2023-04-21T23:28:21.590Z,25.6
2023-04-21T23:34:13.636Z,25.3
2023-04-21T23:40:05.005Z,25.1
2023-04-21T23:45:57.303Z,24.8
2023-04-21T23:51:34.718Z,23.7
2023-04-21T23:57:26.987Z,25.4
